createdAt,value
2019-03-25T00:00:57.703Z,5.57
2019-03-25T00:01:57.691Z,5.63
2019-03-25T00:02:57.678Z,5.68
2019-03-25T00:03:57.688Z,5.48
2019-03-25T00:04:57.660Z,5.37
2019-03-25T00:05:57.677Z,5.43
2019-03-25T00:06:57.656Z,5.40
2019-03-25T00:07:57.618Z,5.32
2019-03-25T00:09:04.938Z,5.37
2019-03-25T00:09:58.613Z,5.31
2019-03-25T00:10:57.679Z,5.27
2019-03-25T00:11:57.575Z,5.22
2019-03-25T00:12:57.580Z,5.19
2019-03-25T00:13:57.550Z,5.19
2019-03-25T00:14:57.556Z,5.17
2019-03-25T00:15:57.527Z,5.23
2019-03-25T00:16:57.523Z,5.27
2019-03-25T00:17:57.505Z,5.20
2019-03-25T00:18:57.506Z,5.19
2019-03-25T00:19:57.497Z,5.20
2019-03-25T00:20:57.478Z,5.25
2019-03-25T00:21:57.458Z,5.22
2019-03-25T00:22:57.445Z,5.27
2019-03-25T00:23:57.434Z,5.12
2019-03-25T00:24:57.450Z,5.30
2019-03-25T00:25:57.424Z,5.17
2019-03-25T00:26:57.404Z,5.32
2019-03-25T00:27:57.390Z,5.34
2019-03-25T00:28:57.380Z,5.37
2019-03-25T00:29:57.364Z,5.43
2019-03-25T00:30:57.372Z,5.48
2019-03-25T00:31:57.346Z,5.50
2019-03-25T00:32:57.380Z,5.52
2019-03-25T00:33:57.322Z,5.49
2019-03-25T00:34:57.309Z,5.55
2019-03-25T00:35:57.318Z,5.59
2019-03-25T00:36:57.287Z,5.55
2019-03-25T00:37:57.272Z,5.50
2019-03-25T00:38:57.261Z,5.55
2019-03-25T00:39:57.250Z,5.60
2019-03-25T00:40:57.261Z,5.57
2019-03-25T00:41:57.228Z,5.60
2019-03-25T00:42:57.216Z,5.70
2019-03-25T00:43:57.214Z,5.64
2019-03-25T00:44:57.193Z,5.67
2019-03-25T00:45:57.182Z,5.74
2019-03-25T00:46:57.189Z,5.77
2019-03-25T00:47:57.161Z,5.81
2019-03-25T00:48:57.150Z,5.70
2019-03-25T00:49:57.135Z,5.71
2019-03-25T00:50:57.125Z,5.73
2019-03-25T00:51:57.131Z,5.81
2019-03-25T00:52:57.102Z,5.78
2019-03-25T00:53:57.103Z,5.70
2019-03-25T00:54:57.079Z,5.71
2019-03-25T00:55:57.068Z,5.70
2019-03-25T00:56:57.081Z,5.74
2019-03-25T00:57:57.045Z,5.78
2019-03-25T00:58:57.034Z,5.86
2019-03-25T00:59:57.032Z,5.75
2019-03-25T01:00:57.039Z,5.77
2019-03-25T01:01:57.018Z,5.91
2019-03-25T01:02:56.987Z,5.85
2019-03-25T01:03:56.976Z,5.83
2019-03-25T01:04:56.965Z,5.74
2019-03-25T01:05:56.956Z,5.82
2019-03-25T01:06:56.957Z,5.82
2019-03-25T01:07:56.927Z,5.88
2019-03-25T01:08:56.917Z,5.89
2019-03-25T01:09:56.907Z,5.86
2019-03-25T01:10:56.894Z,5.88
2019-03-25T01:11:56.905Z,5.83
2019-03-25T01:12:56.871Z,5.78
2019-03-25T01:13:56.867Z,5.83
2019-03-25T01:14:56.848Z,5.88
2019-03-25T01:15:56.869Z,5.88
2019-03-25T01:16:56.854Z,5.81
2019-03-25T01:17:56.829Z,5.86
2019-03-25T01:18:56.799Z,5.81
2019-03-25T01:19:56.795Z,5.82
2019-03-25T01:20:56.781Z,5.82
2019-03-25T01:21:56.765Z,5.82
2019-03-25T01:22:56.783Z,5.83
2019-03-25T01:23:56.741Z,5.89
2019-03-25T01:25:01.824Z,5.71
2019-03-25T01:25:57.716Z,5.74
2019-03-25T01:26:56.706Z,5.74
2019-03-25T01:27:56.714Z,5.78
2019-03-25T01:28:56.684Z,5.81
2019-03-25T01:29:56.675Z,5.67
2019-03-25T01:30:56.660Z,5.73
2019-03-25T01:31:56.651Z,5.74
2019-03-25T01:32:56.662Z,5.82
2019-03-25T01:33:56.627Z,5.88
2019-03-25T01:34:56.616Z,5.82
2019-03-25T01:35:56.602Z,5.88
2019-03-25T01:36:56.592Z,5.86
2019-03-25T01:37:56.580Z,5.89
2019-03-25T01:38:56.590Z,5.96
2019-03-25T01:39:56.558Z,5.88
2019-03-25T01:40:56.544Z,5.91
2019-03-25T01:41:56.535Z,5.95
2019-03-25T01:42:56.522Z,5.92
2019-03-25T01:43:56.558Z,6.00
2019-03-25T01:44:56.503Z,6.09
2019-03-25T01:45:56.487Z,6.11
2019-03-25T01:46:56.477Z,6.07
2019-03-25T01:47:56.467Z,6.09
2019-03-25T01:48:56.453Z,6.07
2019-03-25T01:49:56.461Z,6.32
2019-03-25T01:50:56.429Z,6.10
2019-03-25T01:51:56.419Z,6.14
2019-03-25T01:52:56.404Z,6.26
2019-03-25T01:53:56.395Z,6.18
2019-03-25T01:54:56.402Z,6.25
2019-03-25T01:55:56.374Z,6.26
2019-03-25T01:56:56.362Z,6.30
2019-03-25T01:57:56.347Z,6.30
2019-03-25T01:58:56.335Z,6.32
2019-03-25T01:59:56.342Z,6.38
2019-03-25T02:00:56.312Z,6.28
2019-03-25T02:01:56.302Z,6.33
2019-03-25T02:02:56.292Z,6.33
2019-03-25T02:03:56.278Z,6.30
2019-03-25T02:04:56.292Z,6.43
2019-03-25T02:05:56.256Z,6.41
2019-03-25T02:06:56.244Z,6.43
2019-03-25T02:07:56.236Z,6.53
2019-03-25T02:08:56.220Z,6.48
2019-03-25T02:09:56.208Z,6.44
2019-03-25T02:10:56.216Z,6.44
2019-03-25T02:11:56.187Z,6.46
2019-03-25T02:12:56.178Z,6.30
2019-03-25T02:13:56.162Z,6.47
2019-03-25T02:14:56.151Z,6.46
2019-03-25T02:15:56.161Z,6.48
2019-03-25T02:16:56.130Z,6.71
2019-03-25T02:17:56.116Z,6.51
2019-03-25T02:18:56.106Z,6.46
2019-03-25T02:19:56.095Z,6.62
2019-03-25T02:20:56.082Z,6.41
2019-03-25T02:21:56.089Z,6.56
2019-03-25T02:22:56.219Z,6.62
2019-03-25T02:23:56.050Z,6.56
2019-03-25T02:24:56.036Z,6.51
2019-03-25T02:25:56.025Z,6.54
2019-03-25T02:26:56.032Z,6.50
2019-03-25T02:27:56.003Z,6.44
2019-03-25T02:28:55.991Z,6.50
2019-03-25T02:29:55.977Z,6.61
2019-03-25T02:30:55.967Z,6.54
2019-03-25T02:31:55.978Z,6.53
2019-03-25T02:32:55.943Z,6.54
2019-03-25T02:33:55.933Z,6.51
2019-03-25T02:34:55.920Z,6.41
2019-03-25T02:35:55.910Z,6.56
2019-03-25T02:36:55.937Z,6.43
2019-03-25T02:37:55.889Z,6.58
2019-03-25T02:38:55.881Z,6.56
2019-03-25T02:39:55.898Z,6.44
2019-03-25T02:40:55.854Z,6.53
2019-03-25T02:41:55.850Z,6.47
2019-03-25T02:43:02.886Z,6.41
2019-03-25T02:43:55.820Z,6.41
2019-03-25T02:44:55.806Z,6.41
2019-03-25T02:45:55.799Z,6.43
2019-03-25T02:46:55.794Z,6.51
2019-03-25T02:47:55.789Z,6.48
2019-03-25T02:48:55.760Z,6.32
2019-03-25T02:49:55.749Z,6.44
2019-03-25T02:50:55.739Z,6.43
2019-03-25T02:51:55.727Z,6.40
2019-03-25T02:52:55.738Z,6.46
2019-03-25T02:53:55.710Z,6.46
2019-03-25T02:54:55.689Z,6.46
2019-03-25T02:55:55.682Z,6.33
2019-03-25T02:56:55.665Z,6.44
2019-03-25T02:57:55.657Z,6.56
2019-03-25T02:58:55.661Z,6.33
2019-03-25T02:59:55.630Z,6.47
2019-03-25T03:00:55.624Z,6.41
2019-03-25T03:01:55.630Z,6.36
2019-03-25T03:02:55.610Z,6.32
2019-03-25T03:03:55.604Z,6.29
2019-03-25T03:04:55.575Z,6.28
2019-03-25T03:05:55.562Z,6.35
2019-03-25T03:06:55.556Z,6.33
2019-03-25T03:07:55.543Z,6.35
2019-03-25T03:08:55.550Z,6.33
2019-03-25T03:09:55.524Z,6.38
2019-03-25T03:10:55.524Z,6.44
2019-03-25T03:11:55.492Z,6.35
2019-03-25T03:12:55.486Z,6.18
2019-03-25T03:13:55.474Z,6.30
2019-03-25T03:14:55.482Z,6.26
2019-03-25T03:15:55.448Z,6.21
2019-03-25T03:16:55.438Z,6.18
2019-03-25T03:17:55.430Z,6.18
2019-03-25T03:18:55.413Z,6.14
2019-03-25T03:19:55.568Z,6.16
2019-03-25T03:20:55.430Z,6.04
2019-03-25T03:21:55.386Z,6.16
2019-03-25T03:22:55.413Z,6.16
2019-03-25T03:23:55.367Z,6.09
2019-03-25T03:24:55.366Z,6.07
2019-03-25T03:25:57.619Z,6.14
2019-03-25T03:26:55.325Z,6.28
2019-03-25T03:27:55.312Z,6.14
2019-03-25T03:28:55.297Z,6.19
2019-03-25T03:29:55.296Z,6.22
2019-03-25T03:30:55.296Z,6.21
2019-03-25T03:31:55.296Z,6.33
2019-03-25T03:32:55.278Z,6.22
2019-03-25T03:33:55.241Z,6.32
2019-03-25T03:34:55.244Z,6.21
2019-03-25T03:35:55.235Z,6.32
2019-03-25T03:36:55.205Z,6.29
2019-03-25T03:37:55.198Z,6.35
2019-03-25T03:38:55.184Z,6.41
2019-03-25T03:39:55.174Z,6.44
2019-03-25T03:40:55.194Z,6.36
2019-03-25T03:41:55.150Z,6.53
2019-03-25T03:42:55.143Z,6.36
2019-03-25T03:43:55.123Z,6.30
2019-03-25T03:44:55.116Z,6.43
2019-03-25T03:45:55.126Z,6.40
2019-03-25T03:46:55.097Z,6.47
2019-03-25T03:47:55.083Z,6.47
2019-03-25T03:48:55.087Z,6.53
2019-03-25T03:49:55.066Z,6.51
2019-03-25T03:50:55.045Z,6.38
2019-03-25T03:51:55.063Z,6.41
2019-03-25T03:52:55.039Z,6.44
2019-03-25T03:53:55.011Z,6.58
2019-03-25T03:54:55.004Z,6.47
2019-03-25T03:55:54.993Z,6.58
2019-03-25T03:56:54.993Z,6.54
2019-03-25T03:57:54.964Z,6.51
2019-03-25T03:58:54.955Z,6.43
2019-03-25T03:59:54.943Z,6.66
2019-03-25T04:00:54.930Z,6.61
2019-03-25T04:01:54.941Z,6.59
2019-03-25T04:02:54.913Z,6.54
2019-03-25T04:03:54.897Z,6.51
2019-03-25T04:04:54.883Z,6.54
2019-03-25T04:05:54.873Z,6.61
2019-03-25T04:06:54.862Z,6.54
2019-03-25T04:07:54.866Z,6.58
2019-03-25T04:08:54.838Z,6.61
2019-03-25T04:09:54.829Z,6.56
2019-03-25T04:10:54.830Z,6.48
2019-03-25T04:11:54.805Z,6.36
2019-03-25T04:12:54.818Z,6.22
2019-03-25T04:13:54.781Z,6.18
2019-03-25T04:14:54.774Z,5.98
2019-03-25T04:15:54.758Z,5.86
2019-03-25T04:16:54.751Z,5.89
2019-03-25T04:17:54.751Z,5.89
2019-03-25T04:18:54.726Z,5.89
2019-03-25T04:19:54.708Z,5.83
2019-03-25T04:20:54.698Z,5.73
2019-03-25T04:21:54.688Z,5.82
2019-03-25T04:22:54.696Z,5.68
2019-03-25T04:23:54.666Z,5.70
2019-03-25T04:24:54.654Z,5.75
2019-03-25T04:25:54.640Z,5.70
2019-03-25T04:26:54.638Z,5.71
2019-03-25T04:27:54.660Z,5.67
2019-03-25T04:28:54.606Z,5.70
2019-03-25T04:29:54.597Z,5.67
2019-03-25T04:30:54.591Z,5.73
2019-03-25T04:31:54.573Z,5.66
2019-03-25T04:32:54.559Z,5.67
2019-03-25T04:33:54.569Z,5.63
2019-03-25T04:34:54.537Z,5.67
2019-03-25T04:35:54.527Z,5.74
2019-03-25T04:36:54.517Z,5.67
2019-03-25T04:37:56.489Z,5.67
2019-03-25T04:38:54.509Z,5.82
2019-03-25T04:39:54.479Z,5.83
2019-03-25T04:40:54.468Z,5.74
2019-03-25T04:41:54.459Z,5.78
2019-03-25T04:42:54.445Z,5.82
2019-03-25T04:43:54.696Z,5.82
2019-03-25T04:44:54.421Z,5.93
2019-03-25T04:45:54.411Z,5.91
2019-03-25T04:46:54.401Z,5.85
2019-03-25T04:47:54.391Z,5.85
2019-03-25T04:48:54.375Z,5.82
2019-03-25T04:49:54.382Z,5.74
2019-03-25T04:50:54.352Z,5.77
2019-03-25T04:51:54.346Z,5.64
2019-03-25T04:52:54.331Z,5.60
2019-03-25T04:53:54.316Z,5.46
2019-03-25T04:54:54.323Z,5.53
2019-03-25T04:55:54.294Z,5.49
2019-03-25T04:56:54.283Z,5.41
2019-03-25T04:57:54.273Z,5.23
2019-03-25T04:58:54.264Z,5.25
2019-03-25T04:59:54.272Z,5.19
2019-03-25T05:00:54.239Z,5.19
2019-03-25T05:01:54.225Z,5.14
2019-03-25T05:02:54.217Z,5.20
2019-03-25T05:03:54.233Z,5.23
2019-03-25T05:04:54.189Z,5.12
2019-03-25T05:05:54.198Z,5.09
2019-03-25T05:06:54.179Z,5.10
2019-03-25T05:07:54.154Z,5.10
2019-03-25T05:08:54.144Z,5.13
2019-03-25T05:09:54.135Z,5.04
2019-03-25T05:10:54.140Z,5.02
2019-03-25T05:11:54.111Z,5.13
2019-03-25T05:12:54.096Z,5.04
2019-03-25T05:13:54.084Z,5.05
2019-03-25T05:14:54.075Z,4.95
2019-03-25T05:15:54.082Z,5.04
2019-03-25T05:16:54.054Z,5.02
2019-03-25T05:17:54.039Z,4.98
2019-03-25T05:18:54.030Z,5.01
2019-03-25T05:19:54.015Z,5.02
2019-03-25T05:20:54.030Z,5.01
2019-03-25T05:21:53.995Z,4.98
2019-03-25T05:22:53.982Z,4.92
2019-03-25T05:23:53.973Z,4.96
2019-03-25T05:24:53.963Z,4.95
2019-03-25T05:25:53.949Z,4.84
2019-03-25T05:26:53.956Z,4.91
2019-03-25T05:27:53.926Z,4.86
2019-03-25T05:28:53.912Z,5.01
2019-03-25T05:29:53.900Z,5.01
2019-03-25T05:30:53.888Z,5.10
2019-03-25T05:31:53.894Z,5.07
2019-03-25T05:32:53.864Z,5.04
2019-03-25T05:33:53.853Z,5.09
2019-03-25T05:34:53.842Z,5.19
2019-03-25T05:35:53.836Z,5.17
2019-03-25T05:36:53.858Z,5.14
2019-03-25T05:37:53.807Z,5.14
2019-03-25T05:38:53.800Z,5.09
2019-03-25T05:39:53.784Z,5.25
2019-03-25T05:40:53.771Z,4.99
2019-03-25T05:41:53.762Z,5.09
2019-03-25T05:42:53.767Z,5.12
2019-03-25T05:43:53.741Z,5.07
2019-03-25T05:44:53.726Z,5.12
2019-03-25T05:45:53.716Z,5.07
2019-03-25T05:46:53.708Z,5.04
2019-03-25T05:47:53.711Z,5.14
2019-03-25T05:48:53.679Z,5.10
2019-03-25T05:49:53.669Z,5.12
2019-03-25T05:50:53.657Z,5.02
2019-03-25T05:51:53.647Z,5.02
2019-03-25T05:52:53.656Z,5.02
2019-03-25T05:53:53.622Z,5.13
2019-03-25T05:54:53.624Z,5.04
2019-03-25T05:55:53.606Z,5.09
2019-03-25T05:57:02.018Z,5.05
2019-03-25T05:57:54.594Z,5.05
2019-03-25T05:58:53.564Z,4.99
2019-03-25T05:59:53.553Z,5.02
2019-03-25T06:00:53.541Z,5.04
2019-03-25T06:01:53.531Z,5.14
2019-03-25T06:02:53.538Z,5.04
2019-03-25T06:03:53.507Z,4.98
2019-03-25T06:04:53.495Z,5.10
2019-03-25T06:05:53.485Z,5.02
2019-03-25T06:06:53.472Z,5.05
2019-03-25T06:07:53.502Z,5.05
2019-03-25T06:08:53.451Z,5.16
2019-03-25T06:09:53.439Z,5.04
2019-03-25T06:10:53.434Z,5.12
2019-03-25T06:11:53.417Z,5.14
2019-03-25T06:12:53.402Z,5.13
2019-03-25T06:13:53.410Z,5.12
2019-03-25T06:14:53.380Z,5.16
2019-03-25T06:15:53.367Z,5.19
2019-03-25T06:16:53.356Z,5.20
2019-03-25T06:17:53.397Z,5.23
2019-03-25T06:18:53.358Z,5.19
2019-03-25T06:19:53.327Z,5.31
2019-03-25T06:20:53.312Z,5.34
2019-03-25T06:21:53.298Z,5.34
2019-03-25T06:22:53.286Z,5.41
2019-03-25T06:23:53.275Z,5.30
2019-03-25T06:24:53.281Z,5.19
2019-03-25T06:25:53.252Z,5.01
2019-03-25T06:26:53.282Z,4.79
2019-03-25T06:27:53.232Z,4.70
2019-03-25T06:28:53.218Z,4.64
2019-03-25T06:29:53.229Z,4.64
2019-03-25T06:30:53.203Z,4.46
2019-03-25T06:31:53.183Z,4.37
2019-03-25T06:32:53.177Z,4.51
2019-03-25T06:33:53.159Z,4.47
2019-03-25T06:34:53.167Z,4.36
2019-03-25T06:35:53.138Z,4.37
2019-03-25T06:36:53.124Z,4.33
2019-03-25T06:37:53.113Z,4.37
2019-03-25T06:38:53.105Z,4.46
2019-03-25T06:39:53.114Z,4.21
2019-03-25T06:40:53.089Z,4.19
2019-03-25T06:41:53.078Z,4.28
2019-03-25T06:42:53.057Z,4.39
2019-03-25T06:43:53.048Z,4.39
2019-03-25T06:44:53.034Z,4.34
2019-03-25T06:45:53.040Z,4.55
2019-03-25T06:46:53.011Z,4.96
2019-03-25T06:47:52.998Z,5.92
2019-03-25T06:48:52.991Z,6.47
2019-03-25T06:49:52.980Z,6.91
2019-03-25T06:50:52.982Z,7.63
2019-03-25T06:51:52.951Z,7.82
2019-03-25T06:52:52.942Z,7.87
2019-03-25T06:53:52.934Z,8.20
2019-03-25T06:54:52.961Z,8.35
2019-03-25T06:55:52.946Z,8.33
2019-03-25T06:56:52.908Z,8.20
2019-03-25T06:57:52.885Z,8.04
2019-03-25T06:58:52.874Z,7.79
2019-03-25T06:59:52.865Z,7.44
2019-03-25T07:00:52.850Z,7.31
2019-03-25T07:01:52.856Z,7.19
2019-03-25T07:02:52.828Z,6.73
2019-03-25T07:03:52.820Z,6.71
2019-03-25T07:04:52.801Z,6.62
2019-03-25T07:05:52.790Z,6.71
2019-03-25T07:06:52.797Z,6.53
2019-03-25T07:07:52.776Z,6.43
2019-03-25T07:08:52.757Z,6.46
2019-03-25T07:09:52.746Z,6.32
2019-03-25T07:10:52.734Z,6.36
2019-03-25T07:11:52.744Z,6.26
2019-03-25T07:12:52.712Z,6.29
2019-03-25T07:13:52.701Z,6.32
2019-03-25T07:14:52.697Z,6.30
2019-03-25T07:15:52.679Z,6.46
2019-03-25T07:16:52.722Z,6.33
2019-03-25T07:17:52.655Z,6.50
2019-03-25T07:18:52.645Z,6.43
2019-03-25T07:19:52.634Z,6.40
2019-03-25T07:20:52.623Z,6.40
2019-03-25T07:21:52.635Z,6.50
2019-03-25T07:22:52.600Z,6.40
2019-03-25T07:23:52.588Z,6.47
2019-03-25T07:24:52.578Z,6.51
2019-03-25T07:25:52.568Z,6.41
2019-03-25T07:26:52.559Z,6.38
2019-03-25T07:27:52.564Z,6.29
2019-03-25T07:28:52.534Z,6.29
2019-03-25T07:29:52.521Z,6.26
2019-03-25T07:30:52.510Z,6.21
2019-03-25T07:31:52.498Z,6.21
2019-03-25T07:32:52.506Z,6.13
2019-03-25T07:33:52.479Z,6.22
2019-03-25T07:34:52.464Z,6.29
2019-03-25T07:35:52.459Z,6.33
2019-03-25T07:36:52.441Z,6.29
2019-03-25T07:37:52.474Z,6.41
2019-03-25T07:38:52.419Z,6.36
2019-03-25T07:39:52.407Z,6.43
2019-03-25T07:40:52.398Z,6.40
2019-03-25T07:41:52.392Z,6.53
2019-03-25T07:42:52.378Z,6.63
2019-03-25T07:43:52.380Z,6.72
2019-03-25T07:44:52.354Z,6.72
2019-03-25T07:45:52.342Z,6.86
2019-03-25T07:46:52.331Z,6.84
2019-03-25T07:47:52.320Z,6.91
2019-03-25T07:48:52.336Z,6.99
2019-03-25T07:49:52.298Z,7.41
2019-03-25T07:50:52.287Z,7.74
2019-03-25T07:51:52.276Z,7.97
2019-03-25T07:52:52.266Z,8.03
2019-03-25T07:53:52.272Z,8.08
2019-03-25T07:54:52.245Z,8.11
2019-03-25T07:55:52.236Z,7.87
2019-03-25T07:56:52.215Z,7.75
2019-03-25T07:57:52.211Z,7.72
2019-03-25T07:58:52.219Z,7.52
2019-03-25T07:59:52.185Z,7.59
2019-03-25T08:00:52.170Z,7.50
2019-03-25T08:01:52.156Z,7.32
2019-03-25T08:02:52.155Z,7.24
2019-03-25T08:03:52.168Z,7.26
2019-03-25T08:04:52.125Z,7.20
2019-03-25T08:05:52.110Z,7.20
2019-03-25T08:06:52.106Z,7.16
2019-03-25T08:07:52.116Z,7.23
2019-03-25T08:09:03.126Z,7.22
2019-03-25T08:09:53.081Z,7.08
2019-03-25T08:10:52.053Z,7.08
2019-03-25T08:11:52.048Z,7.16
2019-03-25T08:12:52.056Z,7.04
2019-03-25T08:13:52.015Z,7.04
2019-03-25T08:14:52.039Z,7.02
2019-03-25T08:15:52.023Z,6.95
2019-03-25T08:16:51.981Z,7.01
2019-03-25T08:17:51.968Z,6.90
2019-03-25T08:18:51.956Z,6.95
2019-03-25T08:19:51.966Z,7.19
2019-03-25T08:20:51.941Z,6.97
2019-03-25T08:21:51.923Z,7.04
2019-03-25T08:22:51.909Z,7.08
2019-03-25T08:23:51.937Z,7.19
2019-03-25T08:24:51.887Z,7.22
2019-03-25T08:25:51.891Z,7.19
2019-03-25T08:26:51.865Z,7.15
2019-03-25T08:27:59.817Z,7.15
2019-03-25T08:28:52.836Z,7.09
2019-03-25T08:29:51.827Z,7.13
2019-03-25T08:30:51.833Z,7.12
2019-03-25T08:31:51.805Z,7.23
2019-03-25T08:32:51.793Z,7.16
2019-03-25T08:33:51.781Z,7.17
2019-03-25T08:34:51.769Z,6.99
2019-03-25T08:35:51.774Z,6.94
2019-03-25T08:36:51.746Z,6.98
2019-03-25T08:37:51.736Z,6.91
2019-03-25T08:38:51.728Z,6.79
2019-03-25T08:39:51.709Z,6.81
2019-03-25T08:40:51.745Z,6.79
2019-03-25T08:41:51.690Z,6.63
2019-03-25T08:42:53.692Z,6.73
2019-03-25T08:43:59.932Z,6.47
2019-03-25T08:44:51.650Z,6.44
2019-03-25T08:45:51.644Z,6.21
2019-03-25T08:46:51.649Z,6.14
2019-03-25T08:47:51.622Z,6.13
2019-03-25T08:48:51.607Z,6.09
2019-03-25T08:49:51.597Z,6.01
2019-03-25T08:50:51.584Z,5.88
2019-03-25T08:51:51.597Z,5.74
2019-03-25T08:52:51.562Z,5.81
2019-03-25T08:53:51.552Z,5.68
2019-03-25T08:54:51.552Z,5.64
2019-03-25T08:55:51.534Z,5.52
2019-03-25T08:56:51.558Z,5.52
2019-03-25T08:57:51.507Z,5.37
2019-03-25T08:58:51.493Z,5.45
2019-03-25T08:59:51.483Z,5.52
2019-03-25T09:00:51.472Z,5.81
2019-03-25T09:01:51.458Z,6.04
2019-03-25T09:02:51.468Z,6.59
2019-03-25T09:03:51.437Z,7.40
2019-03-25T09:04:51.427Z,7.58
2019-03-25T09:05:51.413Z,7.41
2019-03-25T09:06:51.406Z,7.22
2019-03-25T09:07:51.418Z,7.16
2019-03-25T09:08:51.380Z,7.31
2019-03-25T09:09:51.370Z,7.32
2019-03-25T09:10:51.355Z,7.52
2019-03-25T09:11:51.773Z,7.66
2019-03-25T09:12:51.359Z,7.72
2019-03-25T09:13:51.321Z,7.81
2019-03-25T09:14:51.308Z,7.85
2019-03-25T09:15:51.295Z,7.71
2019-03-25T09:16:51.283Z,7.29
2019-03-25T09:17:51.319Z,7.31
2019-03-25T09:18:51.286Z,8.68
2019-03-25T09:19:51.250Z,10.36
2019-03-25T09:20:51.237Z,10.99
2019-03-25T09:21:51.230Z,11.77
2019-03-25T09:22:51.215Z,11.78
2019-03-25T09:23:51.220Z,11.59
2019-03-25T09:24:51.192Z,11.35
2019-03-25T09:25:51.180Z,11.83
2019-03-25T09:26:51.169Z,12.87
2019-03-25T09:27:51.157Z,13.91
2019-03-25T09:28:51.167Z,15.24
2019-03-25T09:29:51.136Z,14.29
2019-03-25T09:30:51.121Z,12.70
2019-03-25T09:31:51.112Z,11.24
2019-03-25T09:32:51.098Z,10.59
2019-03-25T09:33:51.134Z,9.76
2019-03-25T09:34:51.078Z,9.27
2019-03-25T09:35:51.178Z,8.68
2019-03-25T09:36:51.052Z,8.36
2019-03-25T09:37:52.780Z,8.25
2019-03-25T09:38:51.031Z,8.15
2019-03-25T09:39:51.041Z,8.07
2019-03-25T09:40:51.012Z,8.04
2019-03-25T09:41:50.995Z,8.51
2019-03-25T09:42:50.981Z,10.44
2019-03-25T09:43:50.973Z,11.50
2019-03-25T09:44:50.989Z,11.67
2019-03-25T09:45:50.949Z,11.24
2019-03-25T09:46:50.936Z,10.74
2019-03-25T09:47:50.927Z,10.36
2019-03-25T09:48:50.913Z,9.78
2019-03-25T09:49:50.927Z,9.35
2019-03-25T09:50:50.889Z,9.25
2019-03-25T09:51:52.865Z,9.25
2019-03-25T09:52:50.935Z,9.30
2019-03-25T09:53:50.894Z,8.81
2019-03-25T09:54:50.848Z,8.65
2019-03-25T09:55:50.849Z,8.42
2019-03-25T09:56:50.820Z,8.26
2019-03-25T09:57:50.809Z,8.15
2019-03-25T09:58:50.799Z,8.04
2019-03-25T09:59:50.784Z,8.22
2019-03-25T10:00:52.179Z,8.22
2019-03-25T10:01:50.762Z,8.33
2019-03-25T10:02:50.751Z,8.36
2019-03-25T10:03:50.739Z,8.29
2019-03-25T10:04:50.729Z,8.32
2019-03-25T10:05:50.737Z,8.11
2019-03-25T10:06:50.706Z,8.10
2019-03-25T10:07:50.695Z,7.92
2019-03-25T10:08:50.682Z,7.49
2019-03-25T10:09:50.671Z,7.31
2019-03-25T10:10:50.687Z,7.05
2019-03-25T10:11:50.649Z,7.01
2019-03-25T10:12:50.638Z,6.94
2019-03-25T10:13:50.623Z,6.86
2019-03-25T10:14:50.615Z,6.89
2019-03-25T10:15:50.599Z,6.89
2019-03-25T10:16:50.607Z,6.98
2019-03-25T10:17:50.577Z,6.99
2019-03-25T10:18:50.565Z,9.15
2019-03-25T10:19:50.560Z,9.35
2019-03-25T10:20:50.541Z,9.58
2019-03-25T10:21:50.555Z,10.30
2019-03-25T10:22:50.519Z,11.41
2019-03-25T10:23:50.568Z,12.31
2019-03-25T10:24:50.499Z,12.60
2019-03-25T10:25:50.482Z,12.34
2019-03-25T10:26:50.492Z,11.96
2019-03-25T10:27:50.462Z,11.65
2019-03-25T10:28:50.449Z,11.16
2019-03-25T10:29:50.437Z,10.78
2019-03-25T10:30:50.424Z,10.15
2019-03-25T10:31:50.437Z,9.52
2019-03-25T10:32:50.403Z,9.25
2019-03-25T10:33:50.388Z,8.86
2019-03-25T10:34:50.379Z,8.87
2019-03-25T10:35:50.368Z,8.91
2019-03-25T10:36:50.358Z,9.23
2019-03-25T10:37:50.364Z,8.97
2019-03-25T10:38:50.333Z,8.88
2019-03-25T10:39:50.323Z,8.50
2019-03-25T10:40:50.312Z,8.28
2019-03-25T10:41:50.300Z,8.14
2019-03-25T10:42:50.308Z,8.07
2019-03-25T10:43:50.279Z,7.90
2019-03-25T10:44:50.263Z,7.96
2019-03-25T10:45:50.264Z,7.96
2019-03-25T10:46:50.242Z,8.69
2019-03-25T10:47:50.251Z,8.91
2019-03-25T10:48:50.217Z,9.49
2019-03-25T10:49:50.207Z,10.59
2019-03-25T10:50:50.197Z,11.11
2019-03-25T10:51:50.186Z,12.05
2019-03-25T10:52:50.193Z,12.70
2019-03-25T10:53:50.159Z,13.63
2019-03-25T10:54:50.307Z,14.29
2019-03-25T10:55:50.136Z,14.94
2019-03-25T10:56:50.128Z,15.57
2019-03-25T10:57:50.151Z,15.51
2019-03-25T10:58:57.797Z,15.74
2019-03-25T10:59:51.090Z,16.31
2019-03-25T11:00:50.079Z,17.03
2019-03-25T11:01:50.068Z,17.44
2019-03-25T11:02:50.056Z,17.81
2019-03-25T11:03:50.062Z,17.70
2019-03-25T11:04:50.031Z,17.63
2019-03-25T11:05:50.020Z,17.69
2019-03-25T11:06:50.013Z,18.18
2019-03-25T11:07:50.001Z,17.17
2019-03-25T11:08:50.006Z,18.03
2019-03-25T11:09:49.975Z,18.33
2019-03-25T11:10:49.968Z,17.43
2019-03-25T11:11:49.952Z,16.59
2019-03-25T11:12:49.943Z,15.82
2019-03-25T11:13:49.951Z,15.76
2019-03-25T11:14:49.920Z,15.28
2019-03-25T11:15:49.906Z,14.46
2019-03-25T11:16:49.895Z,13.89
2019-03-25T11:17:49.883Z,13.52
2019-03-25T11:18:49.893Z,13.06
2019-03-25T11:19:49.859Z,12.39
2019-03-25T11:20:49.854Z,11.74
2019-03-25T11:21:49.838Z,11.14
2019-03-25T11:22:49.829Z,10.63
2019-03-25T11:23:49.815Z,10.51
2019-03-25T11:24:49.820Z,10.34
2019-03-25T11:25:49.789Z,10.24
2019-03-25T11:26:49.779Z,10.00
2019-03-25T11:27:54.410Z,9.68
2019-03-25T11:28:50.754Z,9.24
2019-03-25T11:29:49.763Z,8.94
2019-03-25T11:30:49.732Z,8.87
2019-03-25T11:31:49.720Z,8.93
2019-03-25T11:32:49.713Z,8.78
2019-03-25T11:33:49.700Z,8.69
2019-03-25T11:34:49.708Z,8.93
2019-03-25T11:35:49.677Z,10.40
2019-03-25T11:36:49.663Z,11.09
2019-03-25T11:37:49.650Z,11.17
2019-03-25T11:38:49.640Z,11.83
2019-03-25T11:39:49.628Z,12.62
2019-03-25T11:40:49.640Z,12.77
2019-03-25T11:41:49.607Z,12.69
2019-03-25T11:42:49.600Z,13.46
2019-03-25T11:43:49.581Z,14.20
2019-03-25T11:44:49.571Z,14.88
2019-03-25T11:45:49.582Z,15.96
2019-03-25T11:46:49.548Z,16.44
2019-03-25T11:47:49.537Z,16.35
2019-03-25T11:48:49.523Z,15.78
2019-03-25T11:49:49.513Z,15.48
2019-03-25T11:50:49.518Z,15.06
2019-03-25T11:51:49.489Z,14.69
2019-03-25T11:52:49.480Z,14.49
2019-03-25T11:53:49.468Z,14.06
2019-03-25T11:54:49.455Z,13.44
2019-03-25T11:55:49.464Z,13.06
2019-03-25T11:56:49.433Z,12.66
2019-03-25T11:57:49.418Z,12.46
2019-03-25T11:58:49.409Z,12.08
2019-03-25T11:59:49.398Z,11.93
2019-03-25T12:00:49.437Z,11.74
2019-03-25T12:01:49.383Z,11.67
2019-03-25T12:02:49.364Z,11.50
2019-03-25T12:03:49.353Z,11.31
2019-03-25T12:04:49.342Z,12.93
2019-03-25T12:05:49.332Z,12.85
2019-03-25T12:06:49.338Z,13.00
2019-03-25T12:07:49.323Z,13.15
2019-03-25T12:08:49.299Z,12.74
2019-03-25T12:09:49.287Z,14.06
2019-03-25T12:10:49.270Z,14.07
2019-03-25T12:11:49.275Z,13.58
2019-03-25T12:12:49.248Z,13.29
2019-03-25T12:13:49.237Z,13.98
2019-03-25T12:14:49.223Z,14.04
2019-03-25T12:15:49.212Z,13.69
2019-03-25T12:16:49.233Z,13.59
2019-03-25T12:17:49.189Z,13.51
2019-03-25T12:18:49.178Z,13.65
2019-03-25T12:19:49.170Z,13.61
2019-03-25T12:20:49.155Z,13.74
2019-03-25T12:21:49.141Z,13.38
2019-03-25T12:22:49.179Z,12.89
2019-03-25T12:23:49.120Z,12.11
2019-03-25T12:24:49.115Z,11.39
2019-03-25T12:25:49.096Z,11.20
2019-03-25T12:26:49.086Z,10.83
2019-03-25T12:27:49.101Z,10.58
2019-03-25T12:28:49.062Z,10.47
2019-03-25T12:29:49.056Z,10.55
2019-03-25T12:30:49.043Z,10.86
2019-03-25T12:31:49.029Z,10.74
2019-03-25T12:32:49.037Z,10.73
2019-03-25T12:33:49.007Z,12.21
2019-03-25T12:34:48.993Z,13.22
2019-03-25T12:35:48.986Z,14.31
2019-03-25T12:36:48.970Z,14.91
2019-03-25T12:37:48.979Z,15.12
2019-03-25T12:38:48.952Z,14.64
2019-03-25T12:39:48.936Z,15.17
2019-03-25T12:40:48.928Z,15.57
2019-03-25T12:41:48.918Z,15.92
2019-03-25T12:42:48.924Z,16.26
2019-03-25T12:43:48.899Z,16.90
2019-03-25T12:44:48.879Z,16.95
2019-03-25T12:45:48.863Z,16.85
2019-03-25T12:46:48.856Z,16.45
2019-03-25T12:47:48.843Z,16.77
2019-03-25T12:48:48.856Z,16.11
2019-03-25T12:49:48.821Z,16.48
2019-03-25T12:50:48.814Z,16.88
2019-03-25T12:51:48.797Z,17.23
2019-03-25T12:52:48.786Z,17.18
2019-03-25T12:53:48.794Z,16.89
2019-03-25T12:54:48.764Z,15.56
2019-03-25T12:55:48.754Z,16.25
2019-03-25T12:56:48.743Z,15.76
2019-03-25T12:57:48.728Z,14.98
2019-03-25T12:58:48.741Z,14.56
2019-03-25T12:59:48.705Z,15.31
2019-03-25T13:00:48.703Z,14.81
2019-03-25T13:01:53.123Z,14.99
2019-03-25T13:02:48.674Z,14.39
2019-03-25T13:03:48.662Z,14.19
2019-03-25T13:04:48.669Z,13.63
2019-03-25T13:05:48.639Z,13.40
2019-03-25T13:06:48.627Z,13.18
2019-03-25T13:07:48.615Z,12.71
2019-03-25T13:08:48.603Z,12.33
2019-03-25T13:09:48.610Z,12.06
2019-03-25T13:10:48.581Z,11.68
2019-03-25T13:11:48.566Z,11.57
2019-03-25T13:12:48.556Z,11.29